sensor_id;sensor_type;location;lat;lon;timestamp;pressure;altitude;pressure_sealevel;temperature;humidity
78932;BME280;68331;53.362;55.932;2024-03-06T00:02:06;100560.50;;;-11.03;64.22
78932;BME280;68331;53.362;55.932;2024-03-06T00:04:33;100564.00;;;-11.01;64.15
78932;BME280;68331;53.362;55.932;2024-03-06T00:06:59;100550.41;;;-11.02;63.97
78932;BME280;68331;53.362;55.932;2024-03-06T00:09:26;100564.34;;;-10.83;63.61
78932;BME280;68331;53.362;55.932;2024-03-06T00:11:57;100556.41;;;-10.74;63.58
78932;BME280;68331;53.362;55.932;2024-03-06T00:14:23;100544.53;;;-10.74;63.20
78932;BME280;68331;53.362;55.932;2024-03-06T00:16:50;100561.50;;;-10.74;63.60
78932;BME280;68331;53.362;55.932;2024-03-06T00:19:18;100551.78;;;-10.80;63.19
78932;BME280;68331;53.362;55.932;2024-03-06T00:21:45;100555.50;;;-10.88;63.20
78932;BME280;68331;53.362;55.932;2024-03-06T00:24:15;100559.13;;;-10.98;63.79
78932;BME280;68331;53.362;55.932;2024-03-06T00:26:44;100557.97;;;-11.03;63.65
78932;BME280;68331;53.362;55.932;2024-03-06T00:29:11;100553.41;;;-11.07;63.53
78932;BME280;68331;53.362;55.932;2024-03-06T00:31:42;100553.41;;;-11.07;63.64
78932;BME280;68331;53.362;55.932;2024-03-06T00:34:10;100567.75;;;-11.09;63.54
78932;BME280;68331;53.362;55.932;2024-03-06T00:36:37;100560.78;;;-11.12;63.91
78932;BME280;68331;53.362;55.932;2024-03-06T00:39:03;100570.03;;;-10.87;63.70
78932;BME280;68331;53.362;55.932;2024-03-06T00:41:31;100557.09;;;-10.77;63.37
78932;BME280;68331;53.362;55.932;2024-03-06T00:43:57;100560.78;;;-10.72;63.26
78932;BME280;68331;53.362;55.932;2024-03-06T00:46:24;100579.44;;;-10.73;63.16
78932;BME280;68331;53.362;55.932;2024-03-06T00:48:50;100567.97;;;-10.66;63.34
78932;BME280;68331;53.362;55.932;2024-03-06T00:51:17;100565.00;;;-10.59;63.25
78932;BME280;68331;53.362;55.932;2024-03-06T00:53:44;100565.13;;;-10.58;63.17
78932;BME280;68331;53.362;55.932;2024-03-06T00:56:11;100569.34;;;-10.58;63.28
78932;BME280;68331;53.362;55.932;2024-03-06T00:58:37;100568.94;;;-10.51;63.03
78932;BME280;68331;53.362;55.932;2024-03-06T01:01:03;100495.41;;;-10.85;62.89
78932;BME280;68331;53.362;55.932;2024-03-06T01:03:30;100560.88;;;-10.44;62.69
78932;BME280;68331;53.362;55.932;2024-03-06T01:05:56;100573.56;;;-10.45;62.77
78932;BME280;68331;53.362;55.932;2024-03-06T01:08:22;100574.25;;;-10.48;62.73
78932;BME280;68331;53.362;55.932;2024-03-06T01:10:51;100572.75;;;-10.44;63.08
78932;BME280;68331;53.362;55.932;2024-03-06T01:13:19;100570.81;;;-10.48;62.81
78932;BME280;68331;53.362;55.932;2024-03-06T01:15:46;100566.59;;;-10.48;63.18
78932;BME280;68331;53.362;55.932;2024-03-06T01:18:12;100561.75;;;-10.43;63.26
78932;BME280;68331;53.362;55.932;2024-03-06T01:20:38;100570.78;;;-10.35;62.90
78932;BME280;68331;53.362;55.932;2024-03-06T01:23:05;100561.75;;;-10.43;62.82
78932;BME280;68331;53.362;55.932;2024-03-06T01:25:31;100558.72;;;-10.38;63.04
78932;BME280;68331;53.362;55.932;2024-03-06T01:27:57;100554.50;;;-10.37;62.96
78932;BME280;68331;53.362;55.932;2024-03-06T01:30:23;100548.72;;;-10.35;62.79
78932;BME280;68331;53.362;55.932;2024-03-06T01:32:49;100550.97;;;-10.26;62.61
78932;BME280;68331;53.362;55.932;2024-03-06T01:35:15;100547.34;;;-10.29;62.54
78932;BME280;68331;53.362;55.932;2024-03-06T01:37:42;100536.84;;;-10.34;62.71
78932;BME280;68331;53.362;55.932;2024-03-06T01:40:08;100545.66;;;-10.29;62.92
78932;BME280;68331;53.362;55.932;2024-03-06T01:42:34;100546.09;;;-10.36;62.64
78932;BME280;68331;53.362;55.932;2024-03-06T01:45:02;100552.78;;;-10.51;63.00
78932;BME280;68331;53.362;55.932;2024-03-06T01:47:31;100542.66;;;-10.63;63.50
78932;BME280;68331;53.362;55.932;2024-03-06T01:49:57;100531.13;;;-10.71;63.51
78932;BME280;68331;53.362;55.932;2024-03-06T01:52:24;100538.16;;;-10.67;63.85
78932;BME280;68331;53.362;55.932;2024-03-06T01:54:50;100539.63;;;-10.71;63.88
78932;BME280;68331;53.362;55.932;2024-03-06T01:57:18;100542.59;;;-10.65;63.91
78932;BME280;68331;53.362;55.932;2024-03-06T01:59:45;100540.03;;;-10.65;63.75
78932;BME280;68331;53.362;55.932;2024-03-06T02:02:11;100545.13;;;-10.65;63.79
78932;BME280;68331;53.362;55.932;2024-03-06T02:04:38;100534.44;;;-10.72;63.61
78932;BME280;68331;53.362;55.932;2024-03-06T02:07:08;100539.44;;;-10.74;63.94
78932;BME280;68331;53.362;55.932;2024-03-06T02:09:36;100527.78;;;-10.84;64.47
78932;BME280;68331;53.362;55.932;2024-03-06T02:12:02;100486.91;;;-10.98;64.12
78932;BME280;68331;53.362;55.932;2024-03-06T02:14:29;100549.91;;;-10.56;64.13
78932;BME280;68331;53.362;55.932;2024-03-06T02:16:55;100544.31;;;-10.50;64.20
78932;BME280;68331;53.362;55.932;2024-03-06T02:19:21;100543.34;;;-10.39;63.87
78932;BME280;68331;53.362;55.932;2024-03-06T02:21:48;100544.28;;;-10.37;63.99
78932;BME280;68331;53.362;55.932;2024-03-06T02:24:14;100540.59;;;-10.42;63.80
78932;BME280;68331;53.362;55.932;2024-03-06T02:26:40;100550.00;;;-10.41;63.86
78932;BME280;68331;53.362;55.932;2024-03-06T02:29:06;100531.56;;;-10.50;63.78
78932;BME280;68331;53.362;55.932;2024-03-06T02:31:32;100554.00;;;-10.32;63.83
78932;BME280;68331;53.362;55.932;2024-03-06T02:34:01;100551.31;;;-10.20;63.87
78932;BME280;68331;53.362;55.932;2024-03-06T02:36:30;100559.53;;;-10.11;63.44
78932;BME280;68331;53.362;55.932;2024-03-06T02:38:57;100554.81;;;-10.04;63.28
78932;BME280;68331;53.362;55.932;2024-03-06T02:41:23;100542.44;;;-10.12;62.98
78932;BME280;68331;53.362;55.932;2024-03-06T02:43:49;100559.06;;;-10.18;62.79
78932;BME280;68331;53.362;55.932;2024-03-06T02:46:14;100553.19;;;-10.17;63.30
78932;BME280;68331;53.362;55.932;2024-03-06T02:48:41;100558.28;;;-10.17;62.89
78932;BME280;68331;53.362;55.932;2024-03-06T02:51:07;100559.66;;;-10.22;63.11
78932;BME280;68331;53.362;55.932;2024-03-06T02:53:33;100568.38;;;-10.19;63.77
78932;BME280;68331;53.362;55.932;2024-03-06T02:55:59;100572.78;;;-10.16;63.36
78932;BME280;68331;53.362;55.932;2024-03-06T02:58:25;100571.03;;;-10.17;63.55
78932;BME280;68331;53.362;55.932;2024-03-06T03:00:54;100574.75;;;-10.12;63.35
78932;BME280;68331;53.362;55.932;2024-03-06T03:03:20;100574.94;;;-10.09;63.40
78932;BME280;68331;53.362;55.932;2024-03-06T03:05:45;100575.22;;;-10.18;63.27
78932;BME280;68331;53.362;55.932;2024-03-06T03:08:12;100572.06;;;-10.28;63.33
78932;BME280;68331;53.362;55.932;2024-03-06T03:10:37;100570.31;;;-10.29;63.63
78932;BME280;68331;53.362;55.932;2024-03-06T03:13:04;100569.63;;;-10.12;63.99
78932;BME280;68331;53.362;55.932;2024-03-06T03:15:30;100572.06;;;-10.00;63.54
78932;BME280;68331;53.362;55.932;2024-03-06T03:17:56;100575.47;;;-9.87;63.36
78932;BME280;68331;53.362;55.932;2024-03-06T03:20:22;100571.03;;;-9.76;62.80
78932;BME280;68331;53.362;55.932;2024-03-06T03:22:48;100573.53;;;-9.63;62.79
78932;BME280;68331;53.362;55.932;2024-03-06T03:25:14;100571.34;;;-9.56;62.55
78932;BME280;68331;53.362;55.932;2024-03-06T03:27:42;100565.00;;;-9.48;62.36
78932;BME280;68331;53.362;55.932;2024-03-06T03:30:10;100556.66;;;-9.46;62.17
78932;BME280;68331;53.362;55.932;2024-03-06T03:32:37;100561.84;;;-9.44;61.81
78932;BME280;68331;53.362;55.932;2024-03-06T03:35:07;100557.34;;;-9.48;62.01
78932;BME280;68331;53.362;55.932;2024-03-06T03:37:33;100562.69;;;-9.58;62.11
78932;BME280;68331;53.362;55.932;2024-03-06T03:40:00;100534.66;;;-9.72;61.90
78932;BME280;68331;53.362;55.932;2024-03-06T03:42:32;100569.66;;;-9.56;61.96
78932;BME280;68331;53.362;55.932;2024-03-06T03:44:58;100566.97;;;-9.44;62.00
78932;BME280;68331;53.362;55.932;2024-03-06T03:47:24;100571.97;;;-9.46;62.15
78932;BME280;68331;53.362;55.932;2024-03-06T03:49:50;100567.75;;;-9.45;61.64
78932;BME280;68331;53.362;55.932;2024-03-06T03:52:16;100565.19;;;-9.45;61.79
78932;BME280;68331;53.362;55.932;2024-03-06T03:54:42;100565.88;;;-9.48;61.72
78932;BME280;68331;53.362;55.932;2024-03-06T03:57:08;100555.16;;;-9.42;61.63
78932;BME280;68331;53.362;55.932;2024-03-06T03:59:35;100553.66;;;-9.39;61.45
78932;BME280;68331;53.362;55.932;2024-03-06T04:02:02;100556.13;;;-9.40;61.59
78932;BME280;68331;53.362;55.932;2024-03-06T04:04:29;100557.88;;;-9.39;61.61
78932;BME280;68331;53.362;55.932;2024-03-06T04:06:55;100548.72;;;-9.36;61.18
78932;BME280;68331;53.362;55.932;2024-03-06T04:09:25;100552.88;;;-9.38;61.00
78932;BME280;68331;53.362;55.932;2024-03-06T04:11:51;100553.69;;;-9.24;61.19
78932;BME280;68331;53.362;55.932;2024-03-06T04:14:16;100549.28;;;-9.11;60.91
78932;BME280;68331;53.362;55.932;2024-03-06T04:16:43;100555.97;;;-8.99;60.47
78932;BME280;68331;53.362;55.932;2024-03-06T04:19:08;100556.84;;;-8.98;60.56
78932;BME280;68331;53.362;55.932;2024-03-06T04:21:34;100560.47;;;-8.95;60.18
78932;BME280;68331;53.362;55.932;2024-03-06T04:24:00;100552.91;;;-8.93;60.18
78932;BME280;68331;53.362;55.932;2024-03-06T04:26:26;100551.28;;;-8.91;60.26
78932;BME280;68331;53.362;55.932;2024-03-06T04:28:52;100549.78;;;-8.87;60.22
78932;BME280;68331;53.362;55.932;2024-03-06T04:31:18;100552.97;;;-8.77;59.70
78932;BME280;68331;53.362;55.932;2024-03-06T04:33:44;100554.53;;;-8.64;59.45
78932;BME280;68331;53.362;55.932;2024-03-06T04:36:11;100548.03;;;-8.43;59.12
78932;BME280;68331;53.362;55.932;2024-03-06T04:38:36;100546.56;;;-8.23;58.19
78932;BME280;68331;53.362;55.932;2024-03-06T04:41:05;100551.41;;;-7.80;57.47
78932;BME280;68331;53.362;55.932;2024-03-06T04:43:32;100549.56;;;-7.33;56.05
78932;BME280;68331;53.362;55.932;2024-03-06T04:45:58;100549.22;;;-6.89;54.78
78932;BME280;68331;53.362;55.932;2024-03-06T04:48:24;100547.38;;;-6.56;53.90
78932;BME280;68331;53.362;55.932;2024-03-06T04:50:50;100531.03;;;-6.58;53.73
78932;BME280;68331;53.362;55.932;2024-03-06T04:53:16;100547.03;;;-6.63;54.00
78932;BME280;68331;53.362;55.932;2024-03-06T04:55:42;100540.03;;;-6.48;53.65
78932;BME280;68331;53.362;55.932;2024-03-06T04:58:08;100535.78;;;-6.29;53.12
78932;BME280;68331;53.362;55.932;2024-03-06T05:00:34;100541.22;;;-6.04;52.73
78932;BME280;68331;53.362;55.932;2024-03-06T05:03:00;100533.13;;;-5.94;52.30
78932;BME280;68331;53.362;55.932;2024-03-06T05:05:26;100539.91;;;-5.96;51.54
78932;BME280;68331;53.362;55.932;2024-03-06T05:07:53;100541.50;;;-5.98;51.94
78932;BME280;68331;53.362;55.932;2024-03-06T05:10:19;100534.53;;;-6.00;51.85
78932;BME280;68331;53.362;55.932;2024-03-06T05:12:44;100549.63;;;-6.08;51.19
78932;BME280;68331;53.362;55.932;2024-03-06T05:15:10;100544.53;;;-6.06;51.56
78932;BME280;68331;53.362;55.932;2024-03-06T05:17:37;100544.34;;;-5.92;51.68
78932;BME280;68331;53.362;55.932;2024-03-06T05:20:03;100552.91;;;-5.93;51.56
78932;BME280;68331;53.362;55.932;2024-03-06T05:22:30;100540.81;;;-6.13;51.79
78932;BME280;68331;53.362;55.932;2024-03-06T05:24:57;100550.00;;;-6.18;51.78
78932;BME280;68331;53.362;55.932;2024-03-06T05:27:25;100547.91;;;-6.07;52.06
78932;BME280;68331;53.362;55.932;2024-03-06T05:29:53;100532.44;;;-5.90;51.35
78932;BME280;68331;53.362;55.932;2024-03-06T05:32:20;100548.53;;;-5.94;51.52
78932;BME280;68331;53.362;55.932;2024-03-06T05:34:46;100538.75;;;-5.64;50.95
78932;BME280;68331;53.362;55.932;2024-03-06T05:37:12;100548.44;;;-5.18;50.07
78932;BME280;68331;53.362;55.932;2024-03-06T05:39:38;100542.38;;;-4.78;49.63
78932;BME280;68331;53.362;55.932;2024-03-06T05:42:04;100539.41;;;-4.45;48.95
78932;BME280;68331;53.362;55.932;2024-03-06T05:44:31;100547.25;;;-4.19;48.25
78932;BME280;68331;53.362;55.932;2024-03-06T05:46:58;100549.59;;;-4.03;48.18
78932;BME280;68331;53.362;55.932;2024-03-06T05:49:24;100553.38;;;-4.17;47.70
78932;BME280;68331;53.362;55.932;2024-03-06T05:51:51;100547.63;;;-4.33;48.23
78932;BME280;68331;53.362;55.932;2024-03-06T05:54:20;100541.63;;;-4.32;48.18
78932;BME280;68331;53.362;55.932;2024-03-06T05:56:50;100551.44;;;-4.23;48.35
78932;BME280;68331;53.362;55.932;2024-03-06T05:59:18;100538.94;;;-4.12;47.78
78932;BME280;68331;53.362;55.932;2024-03-06T06:01:44;100546.28;;;-4.01;47.99
78932;BME280;68331;53.362;55.932;2024-03-06T06:04:12;100542.63;;;-3.83;47.72
78932;BME280;68331;53.362;55.932;2024-03-06T06:06:41;100534.53;;;-3.70;47.74
78932;BME280;68331;53.362;55.932;2024-03-06T06:09:07;100532.56;;;-3.53;47.38
78932;BME280;68331;53.362;55.932;2024-03-06T06:11:39;100533.03;;;-3.39;46.83
78932;BME280;68331;53.362;55.932;2024-03-06T06:14:05;100534.53;;;-3.46;46.56
78932;BME280;68331;53.362;55.932;2024-03-06T06:16:37;100509.41;;;-3.76;46.82
78932;BME280;68331;53.362;55.932;2024-03-06T06:19:03;100538.38;;;-3.59;47.15
78932;BME280;68331;53.362;55.932;2024-03-06T06:21:30;100539.94;;;-3.38;46.95
78932;BME280;68331;53.362;55.932;2024-03-06T06:23:56;100531.94;;;-3.22;46.24
78932;BME280;68331;53.362;55.932;2024-03-06T06:26:22;100534.53;;;-3.22;46.70
78932;BME280;68331;53.362;55.932;2024-03-06T06:28:48;100546.59;;;-2.95;46.41
78932;BME280;68331;53.362;55.932;2024-03-06T06:31:15;100530.34;;;-2.93;46.09
78932;BME280;68331;53.362;55.932;2024-03-06T06:33:41;100537.22;;;-2.93;46.06
78932;BME280;68331;53.362;55.932;2024-03-06T06:36:07;100541.75;;;-2.86;45.78
78932;BME280;68331;53.362;55.932;2024-03-06T06:38:33;100546.91;;;-2.86;45.89
78932;BME280;68331;53.362;55.932;2024-03-06T06:40:59;100542.97;;;-2.75;45.74
78932;BME280;68331;53.362;55.932;2024-03-06T06:43:25;100540.00;;;-2.60;45.62
78932;BME280;68331;53.362;55.932;2024-03-06T06:45:52;100535.03;;;-2.54;44.96
78932;BME280;68331;53.362;55.932;2024-03-06T06:48:18;100547.97;;;-2.54;44.84
78932;BME280;68331;53.362;55.932;2024-03-06T06:50:44;100542.81;;;-2.79;45.26
78932;BME280;68331;53.362;55.932;2024-03-06T06:53:13;100539.78;;;-2.68;45.48
78932;BME280;68331;53.362;55.932;2024-03-06T06:55:40;100530.75;;;-2.53;45.17
78932;BME280;68331;53.362;55.932;2024-03-06T06:58:05;100534.97;;;-2.55;45.36
78932;BME280;68331;53.362;55.932;2024-03-06T07:00:33;100532.22;;;-2.35;45.07
78932;BME280;68331;53.362;55.932;2024-03-06T07:02:59;100529.22;;;-2.20;44.93
78932;BME280;68331;53.362;55.932;2024-03-06T07:05:26;100542.16;;;-2.20;45.07
78932;BME280;68331;53.362;55.932;2024-03-06T07:07:52;100537.69;;;-2.24;45.01
78932;BME280;68331;53.362;55.932;2024-03-06T07:10:19;100540.66;;;-2.12;44.66
78932;BME280;68331;53.362;55.932;2024-03-06T07:12:44;100537.78;;;-2.21;44.64
78932;BME280;68331;53.362;55.932;2024-03-06T07:15:11;100534.94;;;-2.30;44.75
78932;BME280;68331;53.362;55.932;2024-03-06T07:17:37;100536.03;;;-2.23;44.95
78932;BME280;68331;53.362;55.932;2024-03-06T07:20:04;100525.91;;;-2.16;45.02
78932;BME280;68331;53.362;55.932;2024-03-06T07:22:34;100533.56;;;-2.19;45.04
78932;BME280;68331;53.362;55.932;2024-03-06T07:25:01;100525.53;;;-1.99;44.47
78932;BME280;68331;53.362;55.932;2024-03-06T07:27:31;100529.41;;;-1.85;44.37
78932;BME280;68331;53.362;55.932;2024-03-06T07:29:58;100526.97;;;-1.79;44.31
78932;BME280;68331;53.362;55.932;2024-03-06T07:32:24;100527.97;;;-1.75;44.31
78932;BME280;68331;53.362;55.932;2024-03-06T07:34:51;100536.13;;;-1.60;44.44
78932;BME280;68331;53.362;55.932;2024-03-06T07:37:17;100529.84;;;-1.38;43.66
78932;BME280;68331;53.362;55.932;2024-03-06T07:39:43;100528.78;;;-1.13;43.03
78932;BME280;68331;53.362;55.932;2024-03-06T07:42:09;100531.94;;;-0.91;42.85
78932;BME280;68331;53.362;55.932;2024-03-06T07:44:36;100529.28;;;-0.95;42.93
78932;BME280;68331;53.362;55.932;2024-03-06T07:47:02;100525.06;;;-0.91;42.74
78932;BME280;68331;53.362;55.932;2024-03-06T07:49:29;100498.66;;;-1.11;42.50
78932;BME280;68331;53.362;55.932;2024-03-06T07:51:57;100531.59;;;-0.71;42.79
78932;BME280;68331;53.362;55.932;2024-03-06T07:54:23;100527.50;;;-0.62;42.68
78932;BME280;68331;53.362;55.932;2024-03-06T07:56:49;100518.94;;;-0.58;42.02
78932;BME280;68331;53.362;55.932;2024-03-06T07:59:15;100516.81;;;-0.38;41.55
78932;BME280;68331;53.362;55.932;2024-03-06T08:01:43;100511.59;;;-0.41;41.82
78932;BME280;68331;53.362;55.932;2024-03-06T08:04:09;100516.28;;;-0.61;42.21
78932;BME280;68331;53.362;55.932;2024-03-06T08:06:35;100512.66;;;-1.03;42.82
78932;BME280;68331;53.362;55.932;2024-03-06T08:09:03;100513.69;;;-1.31;43.25
78932;BME280;68331;53.362;55.932;2024-03-06T08:11:29;100525.34;;;-1.45;44.01
78932;BME280;68331;53.362;55.932;2024-03-06T08:13:59;100511.41;;;-1.50;44.65
78932;BME280;68331;53.362;55.932;2024-03-06T08:16:25;100517.31;;;-1.56;44.36
78932;BME280;68331;53.362;55.932;2024-03-06T08:18:51;100522.06;;;-1.70;44.20
78932;BME280;68331;53.362;55.932;2024-03-06T08:21:17;100517.25;;;-1.57;44.12
78932;BME280;68331;53.362;55.932;2024-03-06T08:23:45;100510.50;;;-1.52;44.44
78932;BME280;68331;53.362;55.932;2024-03-06T08:26:13;100505.06;;;-1.30;44.28
78932;BME280;68331;53.362;55.932;2024-03-06T08:28:39;100509.97;;;-1.06;43.59
78932;BME280;68331;53.362;55.932;2024-03-06T08:31:06;100502.44;;;-0.98;42.99
78932;BME280;68331;53.362;55.932;2024-03-06T08:33:31;100506.06;;;-0.90;43.06
78932;BME280;68331;53.362;55.932;2024-03-06T08:35:57;100501.41;;;-0.70;43.17
78932;BME280;68331;53.362;55.932;2024-03-06T08:38:23;100495.75;;;-0.52;42.91
78932;BME280;68331;53.362;55.932;2024-03-06T08:40:49;100494.25;;;-0.44;42.82
78932;BME280;68331;53.362;55.932;2024-03-06T08:43:16;100488.84;;;-0.15;42.70
78932;BME280;68331;53.362;55.932;2024-03-06T08:45:43;100489.31;;;0.09;42.14
78932;BME280;68331;53.362;55.932;2024-03-06T08:48:09;100479.88;;;0.11;41.83
78932;BME280;68331;53.362;55.932;2024-03-06T08:50:35;100489.31;;;0.09;42.06
78932;BME280;68331;53.362;55.932;2024-03-06T08:53:01;100488.97;;;-0.09;42.48
78932;BME280;68331;53.362;55.932;2024-03-06T08:55:30;100482.63;;;-0.60;42.89
78932;BME280;68331;53.362;55.932;2024-03-06T08:57:56;100480.53;;;-0.76;43.88
78932;BME280;68331;53.362;55.932;2024-03-06T09:00:22;100456.28;;;-0.80;43.81
78932;BME280;68331;53.362;55.932;2024-03-06T09:02:48;100483.69;;;-0.52;43.76
78932;BME280;68331;53.362;55.932;2024-03-06T09:05:15;100484.97;;;-0.33;42.96
78932;BME280;68331;53.362;55.932;2024-03-06T09:07:41;100478.00;;;-0.35;42.81
78932;BME280;68331;53.362;55.932;2024-03-06T09:10:08;100459.91;;;-0.34;42.82
78932;BME280;68331;53.362;55.932;2024-03-06T09:12:35;100479.66;;;-0.39;42.84
78932;BME280;68331;53.362;55.932;2024-03-06T09:15:03;100473.31;;;-0.52;43.54
78932;BME280;68331;53.362;55.932;2024-03-06T09:17:31;100458.81;;;-0.43;43.09
78932;BME280;68331;53.362;55.932;2024-03-06T09:19:57;100468.66;;;-0.29;43.04
78932;BME280;68331;53.362;55.932;2024-03-06T09:22:23;100471.69;;;-0.07;42.76
78932;BME280;68331;53.362;55.932;2024-03-06T09:24:49;100468.94;;;0.26;42.43
78932;BME280;68331;53.362;55.932;2024-03-06T09:27:15;100471.13;;;0.50;41.95
78932;BME280;68331;53.362;55.932;2024-03-06T09:29:43;100476.78;;;0.75;41.42
78932;BME280;68331;53.362;55.932;2024-03-06T09:32:09;100470.19;;;0.95;41.59
78932;BME280;68331;53.362;55.932;2024-03-06T09:34:35;100459.06;;;1.02;41.29
78932;BME280;68331;53.362;55.932;2024-03-06T09:37:02;100457.50;;;1.12;40.67
78932;BME280;68331;53.362;55.932;2024-03-06T09:39:29;100477.03;;;0.90;40.94
78932;BME280;68331;53.362;55.932;2024-03-06T09:41:55;100462.13;;;0.80;40.98
78932;BME280;68331;53.362;55.932;2024-03-06T09:44:23;100481.22;;;0.82;41.74
78932;BME280;68331;53.362;55.932;2024-03-06T09:46:49;100477.63;;;0.75;41.94
78932;BME280;68331;53.362;55.932;2024-03-06T09:49:17;100476.19;;;0.44;42.89
78932;BME280;68331;53.362;55.932;2024-03-06T09:51:45;100473.41;;;0.35;43.42
78932;BME280;68331;53.362;55.932;2024-03-06T09:54:11;100473.22;;;0.24;43.39
78932;BME280;68331;53.362;55.932;2024-03-06T09:56:49;100461.63;;;0.07;43.73
78932;BME280;68331;53.362;55.932;2024-03-06T09:59:15;100466.34;;;0.26;43.23
78932;BME280;68331;53.362;55.932;2024-03-06T10:01:49;100470.41;;;0.59;42.69
78932;BME280;68331;53.362;55.932;2024-03-06T10:06:49;100465.09;;;0.51;43.29
78932;BME280;68331;53.362;55.932;2024-03-06T10:09:19;100459.44;;;0.27;43.67
78932;BME280;68331;53.362;55.932;2024-03-06T10:11:45;100436.91;;;-0.18;44.12
78932;BME280;68331;53.362;55.932;2024-03-06T10:14:11;100449.41;;;0.01;44.31
78932;BME280;68331;53.362;55.932;2024-03-06T10:16:38;100456.53;;;0.11;44.15
78932;BME280;68331;53.362;55.932;2024-03-06T10:19:17;100448.59;;;0.04;43.65
78932;BME280;68331;53.362;55.932;2024-03-06T10:21:48;100453.34;;;-0.16;44.22
78932;BME280;68331;53.362;55.932;2024-03-06T10:24:23;100452.28;;;-0.26;44.60
78932;BME280;68331;53.362;55.932;2024-03-06T10:26:57;100451.78;;;-0.49;45.28
78932;BME280;68331;53.362;55.932;2024-03-06T10:29:27;100449.44;;;-0.76;45.78
78932;BME280;68331;53.362;55.932;2024-03-06T10:31:55;100439.31;;;-0.65;45.58
78932;BME280;68331;53.362;55.932;2024-03-06T10:34:24;100442.00;;;-0.61;45.16
78932;BME280;68331;53.362;55.932;2024-03-06T10:36:55;100436.63;;;-0.70;45.90
78932;BME280;68331;53.362;55.932;2024-03-06T10:39:22;100444.34;;;-0.73;45.76
78932;BME280;68331;53.362;55.932;2024-03-06T10:41:56;100441.22;;;-0.95;46.29
78932;BME280;68331;53.362;55.932;2024-03-06T10:44:26;100448.06;;;-0.98;47.11
78932;BME280;68331;53.362;55.932;2024-03-06T10:47:00;100445.69;;;-1.24;47.38
78932;BME280;68331;53.362;55.932;2024-03-06T10:49:27;100445.06;;;-1.13;47.28
78932;BME280;68331;53.362;55.932;2024-03-06T10:52:01;100445.59;;;-0.92;47.02
78932;BME280;68331;53.362;55.932;2024-03-06T10:54:28;100450.25;;;-0.77;47.29
78932;BME280;68331;53.362;55.932;2024-03-06T10:57:02;100450.34;;;-1.09;47.54
78932;BME280;68331;53.362;55.932;2024-03-06T10:59:29;100454.34;;;-1.22;48.53
78932;BME280;68331;53.362;55.932;2024-03-06T11:01:57;100457.47;;;-1.00;47.93
78932;BME280;68331;53.362;55.932;2024-03-06T11:04:28;100458.66;;;-0.87;48.12
78932;BME280;68331;53.362;55.932;2024-03-06T11:06:55;100456.84;;;-0.91;47.94
78932;BME280;68331;53.362;55.932;2024-03-06T11:09:22;100463.91;;;-0.86;48.28
78932;BME280;68331;53.362;55.932;2024-03-06T11:11:52;100457.69;;;-0.92;48.31
78932;BME280;68331;53.362;55.932;2024-03-06T11:14:20;100451.28;;;-1.07;48.71
78932;BME280;68331;53.362;55.932;2024-03-06T11:17:08;100454.34;;;-1.22;49.15
78932;BME280;68331;53.362;55.932;2024-03-06T11:28:23;100454.94;;;-1.33;48.74
78932;BME280;68331;53.362;55.932;2024-03-06T11:36:20;100466.19;;;-1.65;49.80
78932;BME280;68331;53.362;55.932;2024-03-06T11:41:13;100453.41;;;-1.90;49.91
78932;BME280;68331;53.362;55.932;2024-03-06T11:43:43;100450.56;;;-1.99;50.17
78932;BME280;68331;53.362;55.932;2024-03-06T11:46:10;100459.06;;;-2.03;50.53
78932;BME280;68331;53.362;55.932;2024-03-06T11:48:36;100457.03;;;-2.14;50.46
78932;BME280;68331;53.362;55.932;2024-03-06T11:51:03;100431.03;;;-2.48;50.63
78932;BME280;68331;53.362;55.932;2024-03-06T11:53:30;100464.44;;;-2.54;51.34
78932;BME280;68331;53.362;55.932;2024-03-06T11:55:58;100455.81;;;-2.55;51.62
78932;BME280;68331;53.362;55.932;2024-03-06T11:58:24;100458.09;;;-2.64;52.51
78932;BME280;68331;53.362;55.932;2024-03-06T12:00:50;100455.22;;;-2.73;52.45
78932;BME280;68331;53.362;55.932;2024-03-06T12:03:17;100470.63;;;-2.76;52.60
78932;BME280;68331;53.362;55.932;2024-03-06T12:05:44;100456.22;;;-2.68;52.31
78932;BME280;68331;53.362;55.932;2024-03-06T12:08:12;100458.03;;;-2.66;52.60
78932;BME280;68331;53.362;55.932;2024-03-06T12:10:38;100459.00;;;-2.62;52.22
78932;BME280;68331;53.362;55.932;2024-03-06T12:13:05;100446.75;;;-2.69;52.40
78932;BME280;68331;53.362;55.932;2024-03-06T12:15:31;100449.50;;;-2.63;52.60
78932;BME280;68331;53.362;55.932;2024-03-06T12:17:57;100441.19;;;-2.54;52.21
78932;BME280;68331;53.362;55.932;2024-03-06T12:20:24;100459.16;;;-2.58;52.48
78932;BME280;68331;53.362;55.932;2024-03-06T12:22:52;100467.31;;;-2.72;52.98
78932;BME280;68331;53.362;55.932;2024-03-06T12:25:23;100458.53;;;-3.05;53.46
78932;BME280;68331;53.362;55.932;2024-03-06T12:27:51;100465.88;;;-3.17;54.09
78932;BME280;68331;53.362;55.932;2024-03-06T12:30:18;100468.44;;;-3.17;54.20
78932;BME280;68331;53.362;55.932;2024-03-06T12:32:44;100460.69;;;-3.17;54.33
78932;BME280;68331;53.362;55.932;2024-03-06T12:35:11;100461.56;;;-3.16;54.59
78932;BME280;68331;53.362;55.932;2024-03-06T12:37:36;100457.97;;;-3.21;54.82
78932;BME280;68331;53.362;55.932;2024-03-06T12:40:03;100458.88;;;-3.19;55.11
78932;BME280;68331;53.362;55.932;2024-03-06T12:42:39;100460.50;;;-3.23;55.42
78932;BME280;68331;53.362;55.932;2024-03-06T12:45:05;100445.66;;;-3.30;55.40
78932;BME280;68331;53.362;55.932;2024-03-06T12:47:32;100456.81;;;-3.31;55.46
78932;BME280;68331;53.362;55.932;2024-03-06T12:49:58;100460.25;;;-3.31;55.73
78932;BME280;68331;53.362;55.932;2024-03-06T12:52:24;100463.25;;;-3.44;55.71
78932;BME280;68331;53.362;55.932;2024-03-06T12:54:50;100447.66;;;-3.47;56.25
78932;BME280;68331;53.362;55.932;2024-03-06T12:57:16;100449.66;;;-3.38;56.64